sensor_id;sensor_type;location;lat;lon;timestamp;temperature;humidity
11597;DHT22;5854;48.072;16.286;2023-06-22T00:01:26;27.80;47.10
11597;DHT22;5854;48.072;16.286;2023-06-22T00:04:05;27.80;48.30
11597;DHT22;5854;48.072;16.286;2023-06-22T00:07:02;28.10;47.40
11597;DHT22;5854;48.072;16.286;2023-06-22T00:09:55;28.00;47.30
11597;DHT22;5854;48.072;16.286;2023-06-22T00:12:49;27.90;46.40
11597;DHT22;5854;48.072;16.286;2023-06-22T00:18:50;27.90;46.60
11597;DHT22;5854;48.072;16.286;2023-06-22T00:21:54;27.60;47.50
11597;DHT22;5854;48.072;16.286;2023-06-22T00:24:54;27.90;46.70
11597;DHT22;5854;48.072;16.286;2023-06-22T00:27:42;28.30;47.70
11597;DHT22;5854;48.072;16.286;2023-06-22T00:30:30;27.90;46.10
11597;DHT22;5854;48.072;16.286;2023-06-22T00:33:31;27.60;47.30
11597;DHT22;5854;48.072;16.286;2023-06-22T00:36:28;27.80;48.10
11597;DHT22;5854;48.072;16.286;2023-06-22T00:39:31;27.90;48.10
11597;DHT22;5854;48.072;16.286;2023-06-22T00:42:20;27.80;47.00
11597;DHT22;5854;48.072;16.286;2023-06-22T00:45:14;27.80;46.70
11597;DHT22;5854;48.072;16.286;2023-06-22T00:48:03;27.70;47.40
11597;DHT22;5854;48.072;16.286;2023-06-22T00:51:02;27.80;46.90
11597;DHT22;5854;48.072;16.286;2023-06-22T00:53:45;27.80;46.70
11597;DHT22;5854;48.072;16.286;2023-06-22T00:56:26;27.40;47.60
11597;DHT22;5854;48.072;16.286;2023-06-22T00:59:07;27.50;47.50
11597;DHT22;5854;48.072;16.286;2023-06-22T01:02:06;27.40;47.50
11597;DHT22;5854;48.072;16.286;2023-06-22T01:04:52;27.10;48.30
11597;DHT22;5854;48.072;16.286;2023-06-22T01:11:19;26.80;48.10
11597;DHT22;5854;48.072;16.286;2023-06-22T01:14:20;26.90;48.10
11597;DHT22;5854;48.072;16.286;2023-06-22T01:17:16;27.30;48.70
11597;DHT22;5854;48.072;16.286;2023-06-22T01:20:13;27.00;48.40
11597;DHT22;5854;48.072;16.286;2023-06-22T01:23:12;26.90;48.50
11597;DHT22;5854;48.072;16.286;2023-06-22T01:26:20;26.90;48.70
11597;DHT22;5854;48.072;16.286;2023-06-22T01:29:28;27.00;50.00
11597;DHT22;5854;48.072;16.286;2023-06-22T01:32:01;27.00;48.00
11597;DHT22;5854;48.072;16.286;2023-06-22T01:34:52;27.00;48.80
11597;DHT22;5854;48.072;16.286;2023-06-22T01:37:37;27.10;48.20
11597;DHT22;5854;48.072;16.286;2023-06-22T01:40:31;27.00;48.70
11597;DHT22;5854;48.072;16.286;2023-06-22T01:43:27;26.80;48.00
11597;DHT22;5854;48.072;16.286;2023-06-22T01:49:54;26.90;49.00
11597;DHT22;5854;48.072;16.286;2023-06-22T01:52:43;26.80;49.00
11597;DHT22;5854;48.072;16.286;2023-06-22T01:55:40;27.00;48.50
11597;DHT22;5854;48.072;16.286;2023-06-22T01:58:42;26.60;48.50
11597;DHT22;5854;48.072;16.286;2023-06-22T02:01:51;26.60;49.10
11597;DHT22;5854;48.072;16.286;2023-06-22T02:05:06;26.40;49.40
11597;DHT22;5854;48.072;16.286;2023-06-22T02:08:00;26.60;48.70
11597;DHT22;5854;48.072;16.286;2023-06-22T02:11:00;26.40;49.30
11597;DHT22;5854;48.072;16.286;2023-06-22T02:14:00;26.30;50.50
11597;DHT22;5854;48.072;16.286;2023-06-22T02:16:57;26.20;49.60
11597;DHT22;5854;48.072;16.286;2023-06-22T02:19:39;26.10;49.70
11597;DHT22;5854;48.072;16.286;2023-06-22T02:22:20;26.00;51.40
11597;DHT22;5854;48.072;16.286;2023-06-22T02:25:06;26.10;49.40
11597;DHT22;5854;48.072;16.286;2023-06-22T02:28:07;26.20;50.10
11597;DHT22;5854;48.072;16.286;2023-06-22T02:30:47;26.10;49.60
11597;DHT22;5854;48.072;16.286;2023-06-22T02:33:42;26.20;50.10
11597;DHT22;5854;48.072;16.286;2023-06-22T02:36:39;26.10;50.00
11597;DHT22;5854;48.072;16.286;2023-06-22T02:39:34;26.00;50.30
11597;DHT22;5854;48.072;16.286;2023-06-22T02:42:27;25.80;49.50
11597;DHT22;5854;48.072;16.286;2023-06-22T02:45:15;26.00;49.90
11597;DHT22;5854;48.072;16.286;2023-06-22T02:48:11;25.80;50.50
11597;DHT22;5854;48.072;16.286;2023-06-22T02:50:53;25.70;51.40
11597;DHT22;5854;48.072;16.286;2023-06-22T02:53:53;25.90;49.20
11597;DHT22;5854;48.072;16.286;2023-06-22T02:56:37;25.70;50.10
11597;DHT22;5854;48.072;16.286;2023-06-22T02:59:38;25.80;50.00
11597;DHT22;5854;48.072;16.286;2023-06-22T03:02:37;25.60;50.20
11597;DHT22;5854;48.072;16.286;2023-06-22T03:05:31;25.40;50.40
11597;DHT22;5854;48.072;16.286;2023-06-22T03:08:27;25.60;51.60
11597;DHT22;5854;48.072;16.286;2023-06-22T03:11:35;25.90;49.60
11597;DHT22;5854;48.072;16.286;2023-06-22T03:14:27;25.90;49.40
11597;DHT22;5854;48.072;16.286;2023-06-22T03:17:16;25.90;49.10
11597;DHT22;5854;48.072;16.286;2023-06-22T03:20:19;26.00;50.90
11597;DHT22;5854;48.072;16.286;2023-06-22T03:23:06;25.80;49.20
11597;DHT22;5854;48.072;16.286;2023-06-22T03:25:55;25.60;51.10
11597;DHT22;5854;48.072;16.286;2023-06-22T03:29:00;25.50;50.40
11597;DHT22;5854;48.072;16.286;2023-06-22T03:31:54;25.60;51.40
11597;DHT22;5854;48.072;16.286;2023-06-22T03:34:39;25.60;50.00
11597;DHT22;5854;48.072;16.286;2023-06-22T03:37:49;25.70;50.80
11597;DHT22;5854;48.072;16.286;2023-06-22T03:40:37;25.50;50.30
11597;DHT22;5854;48.072;16.286;2023-06-22T03:43:29;25.70;50.10
11597;DHT22;5854;48.072;16.286;2023-06-22T03:46:34;25.60;50.20
11597;DHT22;5854;48.072;16.286;2023-06-22T03:49:45;25.40;50.90
11597;DHT22;5854;48.072;16.286;2023-06-22T03:52:45;25.60;50.60
11597;DHT22;5854;48.072;16.286;2023-06-22T03:59:09;25.70;50.70
11597;DHT22;5854;48.072;16.286;2023-06-22T04:02:14;25.60;50.60
11597;DHT22;5854;48.072;16.286;2023-06-22T04:04:54;25.50;51.50
11597;DHT22;5854;48.072;16.286;2023-06-22T04:07:50;25.40;51.90
11597;DHT22;5854;48.072;16.286;2023-06-22T04:10:38;25.30;52.10
11597;DHT22;5854;48.072;16.286;2023-06-22T04:13:13;25.30;52.30
11597;DHT22;5854;48.072;16.286;2023-06-22T04:15:47;25.60;51.70
11597;DHT22;5854;48.072;16.286;2023-06-22T04:18:44;25.50;52.10
11597;DHT22;5854;48.072;16.286;2023-06-22T04:21:23;25.70;51.00
11597;DHT22;5854;48.072;16.286;2023-06-22T04:24:01;25.80;50.70
11597;DHT22;5854;48.072;16.286;2023-06-22T04:26:34;25.90;50.90
11597;DHT22;5854;48.072;16.286;2023-06-22T04:29:11;25.90;51.80
11597;DHT22;5854;48.072;16.286;2023-06-22T04:31:41;25.70;51.60
11597;DHT22;5854;48.072;16.286;2023-06-22T04:34:21;25.70;51.20
11597;DHT22;5854;48.072;16.286;2023-06-22T04:37:02;25.70;51.20
11597;DHT22;5854;48.072;16.286;2023-06-22T04:39:42;25.60;51.00
11597;DHT22;5854;48.072;16.286;2023-06-22T04:42:12;25.90;50.40
11597;DHT22;5854;48.072;16.286;2023-06-22T04:44:54;25.90;50.60
11597;DHT22;5854;48.072;16.286;2023-06-22T04:47:50;25.90;50.70
11597;DHT22;5854;48.072;16.286;2023-06-22T04:50:44;25.90;50.00
11597;DHT22;5854;48.072;16.286;2023-06-22T04:53:40;25.90;50.50
11597;DHT22;5854;48.072;16.286;2023-06-22T04:56:36;26.00;50.90
11597;DHT22;5854;48.072;16.286;2023-06-22T04:59:48;26.10;50.00
11597;DHT22;5854;48.072;16.286;2023-06-22T05:02:40;26.00;50.00
11597;DHT22;5854;48.072;16.286;2023-06-22T05:05:33;26.00;50.20
11597;DHT22;5854;48.072;16.286;2023-06-22T05:08:28;26.00;51.40
11597;DHT22;5854;48.072;16.286;2023-06-22T05:11:42;26.00;49.80
11597;DHT22;5854;48.072;16.286;2023-06-22T05:14:34;26.10;50.10
11597;DHT22;5854;48.072;16.286;2023-06-22T05:17:35;26.00;49.80
11597;DHT22;5854;48.072;16.286;2023-06-22T05:20:37;26.00;49.90
11597;DHT22;5854;48.072;16.286;2023-06-22T05:23:10;26.00;49.70
11597;DHT22;5854;48.072;16.286;2023-06-22T05:26:09;26.00;49.80
11597;DHT22;5854;48.072;16.286;2023-06-22T05:29:09;26.00;49.70
11597;DHT22;5854;48.072;16.286;2023-06-22T05:32:14;26.00;49.70
11597;DHT22;5854;48.072;16.286;2023-06-22T05:35:21;26.10;49.80
11597;DHT22;5854;48.072;16.286;2023-06-22T05:38:24;26.10;50.10
11597;DHT22;5854;48.072;16.286;2023-06-22T05:41:15;26.20;49.60
11597;DHT22;5854;48.072;16.286;2023-06-22T05:44:02;26.20;49.70
11597;DHT22;5854;48.072;16.286;2023-06-22T05:46:59;26.30;50.20
11597;DHT22;5854;48.072;16.286;2023-06-22T05:49:53;26.30;50.70
11597;DHT22;5854;48.072;16.286;2023-06-22T05:52:39;26.20;49.40
11597;DHT22;5854;48.072;16.286;2023-06-22T05:55:30;26.20;49.70
11597;DHT22;5854;48.072;16.286;2023-06-22T05:58:25;26.20;50.00
11597;DHT22;5854;48.072;16.286;2023-06-22T06:01:23;25.90;51.60
11597;DHT22;5854;48.072;16.286;2023-06-22T06:04:20;26.00;51.60
11597;DHT22;5854;48.072;16.286;2023-06-22T06:07:10;26.20;50.70
11597;DHT22;5854;48.072;16.286;2023-06-22T06:09:56;26.50;50.50
11597;DHT22;5854;48.072;16.286;2023-06-22T06:12:54;26.80;49.20
11597;DHT22;5854;48.072;16.286;2023-06-22T06:15:50;27.00;49.20
11597;DHT22;5854;48.072;16.286;2023-06-22T06:18:46;27.20;48.70
11597;DHT22;5854;48.072;16.286;2023-06-22T06:21:48;27.60;47.80
11597;DHT22;5854;48.072;16.286;2023-06-22T06:24:38;27.80;46.80
11597;DHT22;5854;48.072;16.286;2023-06-22T06:27:28;27.80;46.60
11597;DHT22;5854;48.072;16.286;2023-06-22T06:30:18;28.10;46.60
11597;DHT22;5854;48.072;16.286;2023-06-22T06:33:17;28.20;46.60
11597;DHT22;5854;48.072;16.286;2023-06-22T06:36:03;28.30;46.30
11597;DHT22;5854;48.072;16.286;2023-06-22T06:38:52;28.50;45.40
11597;DHT22;5854;48.072;16.286;2023-06-22T06:41:54;28.60;46.00
11597;DHT22;5854;48.072;16.286;2023-06-22T06:44:37;28.80;45.30
11597;DHT22;5854;48.072;16.286;2023-06-22T06:47:26;28.90;45.30
11597;DHT22;5854;48.072;16.286;2023-06-22T06:50:30;28.90;43.90
11597;DHT22;5854;48.072;16.286;2023-06-22T06:53:08;29.10;44.50
11597;DHT22;5854;48.072;16.286;2023-06-22T06:55:41;29.30;44.30
11597;DHT22;5854;48.072;16.286;2023-06-22T06:58:16;29.20;43.70
11597;DHT22;5854;48.072;16.286;2023-06-22T07:00:45;29.40;43.90
11597;DHT22;5854;48.072;16.286;2023-06-22T07:03:17;29.50;43.60
11597;DHT22;5854;48.072;16.286;2023-06-22T07:05:51;29.50;43.50
11597;DHT22;5854;48.072;16.286;2023-06-22T07:08:23;29.60;43.20
11597;DHT22;5854;48.072;16.286;2023-06-22T07:10:58;29.90;42.60
11597;DHT22;5854;48.072;16.286;2023-06-22T07:13:33;29.90;42.40
11597;DHT22;5854;48.072;16.286;2023-06-22T07:16:04;30.10;42.50
11597;DHT22;5854;48.072;16.286;2023-06-22T07:18:32;30.30;42.30
11597;DHT22;5854;48.072;16.286;2023-06-22T07:21:03;30.30;42.10
11597;DHT22;5854;48.072;16.286;2023-06-22T07:23:38;30.40;43.10
11597;DHT22;5854;48.072;16.286;2023-06-22T07:26:06;30.60;42.50
11597;DHT22;5854;48.072;16.286;2023-06-22T07:28:39;30.70;41.30
11597;DHT22;5854;48.072;16.286;2023-06-22T07:31:15;30.80;40.70
11597;DHT22;5854;48.072;16.286;2023-06-22T07:33:53;30.70;41.60
11597;DHT22;5854;48.072;16.286;2023-06-22T07:36:23;30.90;40.20
11597;DHT22;5854;48.072;16.286;2023-06-22T07:38:55;31.00;42.30
11597;DHT22;5854;48.072;16.286;2023-06-22T07:41:26;31.20;41.70
11597;DHT22;5854;48.072;16.286;2023-06-22T07:43:58;31.10;41.00
11597;DHT22;5854;48.072;16.286;2023-06-22T07:46:26;31.00;42.90
11597;DHT22;5854;48.072;16.286;2023-06-22T07:48:56;31.10;42.50
11597;DHT22;5854;48.072;16.286;2023-06-22T07:51:32;31.50;39.90
11597;DHT22;5854;48.072;16.286;2023-06-22T07:54:04;31.80;41.10
11597;DHT22;5854;48.072;16.286;2023-06-22T07:56:47;31.10;39.70
11597;DHT22;5854;48.072;16.286;2023-06-22T07:59:28;30.00;42.10
11597;DHT22;5854;48.072;16.286;2023-06-22T08:02:22;29.50;44.50
11597;DHT22;5854;48.072;16.286;2023-06-22T08:04:59;29.30;43.40
11597;DHT22;5854;48.072;16.286;2023-06-22T08:11:12;28.90;45.90
11597;DHT22;5854;48.072;16.286;2023-06-22T08:14:25;28.90;45.20
11597;DHT22;5854;48.072;16.286;2023-06-22T08:17:08;28.80;45.80
11597;DHT22;5854;48.072;16.286;2023-06-22T08:19:46;28.80;46.00
11597;DHT22;5854;48.072;16.286;2023-06-22T08:22:48;28.90;46.70
11597;DHT22;5854;48.072;16.286;2023-06-22T08:25:49;28.90;47.60
11597;DHT22;5854;48.072;16.286;2023-06-22T08:28:27;28.90;44.30
11597;DHT22;5854;48.072;16.286;2023-06-22T08:31:35;28.80;47.10
11597;DHT22;5854;48.072;16.286;2023-06-22T08:34:50;28.90;46.60
11597;DHT22;5854;48.072;16.286;2023-06-22T08:37:46;29.00;46.40
11597;DHT22;5854;48.072;16.286;2023-06-22T08:40:32;28.80;44.90
11597;DHT22;5854;48.072;16.286;2023-06-22T08:43:18;28.90;45.40
11597;DHT22;5854;48.072;16.286;2023-06-22T08:46:25;29.00;49.70
11597;DHT22;5854;48.072;16.286;2023-06-22T08:49:34;29.10;46.70
11597;DHT22;5854;48.072;16.286;2023-06-22T08:52:23;29.00;47.60
11597;DHT22;5854;48.072;16.286;2023-06-22T08:55:15;29.20;47.20
11597;DHT22;5854;48.072;16.286;2023-06-22T08:58:32;29.30;48.00
11597;DHT22;5854;48.072;16.286;2023-06-22T09:01:32;29.40;47.00
11597;DHT22;5854;48.072;16.286;2023-06-22T09:04:30;29.40;46.40
11597;DHT22;5854;48.072;16.286;2023-06-22T09:07:19;29.30;45.10
11597;DHT22;5854;48.072;16.286;2023-06-22T09:10:10;29.30;46.00
11597;DHT22;5854;48.072;16.286;2023-06-22T09:13:04;29.30;45.30
11597;DHT22;5854;48.072;16.286;2023-06-22T09:15:57;29.30;46.20
11597;DHT22;5854;48.072;16.286;2023-06-22T09:18:47;29.30;46.20
11597;DHT22;5854;48.072;16.286;2023-06-22T09:21:31;29.40;44.60
11597;DHT22;5854;48.072;16.286;2023-06-22T09:24:30;29.50;46.60
11597;DHT22;5854;48.072;16.286;2023-06-22T09:27:26;29.50;44.50
11597;DHT22;5854;48.072;16.286;2023-06-22T09:30:38;29.50;44.30
11597;DHT22;5854;48.072;16.286;2023-06-22T09:33:33;29.60;45.50
11597;DHT22;5854;48.072;16.286;2023-06-22T09:36:33;29.70;44.30
11597;DHT22;5854;48.072;16.286;2023-06-22T09:39:29;29.50;45.10
11597;DHT22;5854;48.072;16.286;2023-06-22T09:42:28;29.50;45.00
11597;DHT22;5854;48.072;16.286;2023-06-22T09:45:20;29.70;45.90
11597;DHT22;5854;48.072;16.286;2023-06-22T09:47:55;29.80;45.30
11597;DHT22;5854;48.072;16.286;2023-06-22T09:53:42;29.80;45.40
11597;DHT22;5854;48.072;16.286;2023-06-22T09:56:33;29.80;46.90
11597;DHT22;5854;48.072;16.286;2023-06-22T09:59:23;29.90;45.50
11597;DHT22;5854;48.072;16.286;2023-06-22T10:02:25;29.90;45.80
11597;DHT22;5854;48.072;16.286;2023-06-22T10:05:13;29.90;44.00
11597;DHT22;5854;48.072;16.286;2023-06-22T10:08:25;29.90;43.40
11597;DHT22;5854;48.072;16.286;2023-06-22T10:11:26;29.90;42.80
11597;DHT22;5854;48.072;16.286;2023-06-22T10:14:41;30.00;43.30
11597;DHT22;5854;48.072;16.286;2023-06-22T10:17:40;30.10;43.60
11597;DHT22;5854;48.072;16.286;2023-06-22T10:20:37;30.10;43.70
11597;DHT22;5854;48.072;16.286;2023-06-22T10:23:34;30.20;43.80
11597;DHT22;5854;48.072;16.286;2023-06-22T10:26:39;30.20;43.70
11597;DHT22;5854;48.072;16.286;2023-06-22T10:29:38;30.20;43.40
11597;DHT22;5854;48.072;16.286;2023-06-22T10:32:32;30.30;43.30
11597;DHT22;5854;48.072;16.286;2023-06-22T10:35:34;30.30;43.80
11597;DHT22;5854;48.072;16.286;2023-06-22T10:38:24;30.30;42.70
11597;DHT22;5854;48.072;16.286;2023-06-22T10:41:22;30.30;44.10
11597;DHT22;5854;48.072;16.286;2023-06-22T10:43:58;30.30;43.30
11597;DHT22;5854;48.072;16.286;2023-06-22T10:46:38;30.10;42.60
11597;DHT22;5854;48.072;16.286;2023-06-22T10:49:32;30.20;43.30
11597;DHT22;5854;48.072;16.286;2023-06-22T10:52:17;30.40;42.90
11597;DHT22;5854;48.072;16.286;2023-06-22T10:55:01;30.50;41.60
11597;DHT22;5854;48.072;16.286;2023-06-22T10:57:31;30.50;43.00
11597;DHT22;5854;48.072;16.286;2023-06-22T11:00:03;30.40;43.10
11597;DHT22;5854;48.072;16.286;2023-06-22T11:02:39;30.40;42.70
11597;DHT22;5854;48.072;16.286;2023-06-22T11:05:14;30.50;43.00
11597;DHT22;5854;48.072;16.286;2023-06-22T11:07:46;30.50;42.00
11597;DHT22;5854;48.072;16.286;2023-06-22T11:10:32;30.60;43.10
11597;DHT22;5854;48.072;16.286;2023-06-22T11:13:13;30.90;42.90
11597;DHT22;5854;48.072;16.286;2023-06-22T11:15:54;31.30;41.20
11597;DHT22;5854;48.072;16.286;2023-06-22T11:18:39;31.80;40.90
11597;DHT22;5854;48.072;16.286;2023-06-22T11:21:26;32.30;41.30
11597;DHT22;5854;48.072;16.286;2023-06-22T11:24:25;32.60;39.70
11597;DHT22;5854;48.072;16.286;2023-06-22T11:27:42;33.00;39.10
11597;DHT22;5854;48.072;16.286;2023-06-22T11:30:30;33.20;39.20
11597;DHT22;5854;48.072;16.286;2023-06-22T11:33:12;33.30;38.80
11597;DHT22;5854;48.072;16.286;2023-06-22T11:36:10;33.50;38.50
11597;DHT22;5854;48.072;16.286;2023-06-22T11:39:08;33.60;38.90
11597;DHT22;5854;48.072;16.286;2023-06-22T11:41:49;33.60;39.00
11597;DHT22;5854;48.072;16.286;2023-06-22T11:47:47;33.60;38.70
11597;DHT22;5854;48.072;16.286;2023-06-22T11:50:32;33.70;38.70
11597;DHT22;5854;48.072;16.286;2023-06-22T11:53:29;33.50;39.20
11597;DHT22;5854;48.072;16.286;2023-06-22T11:56:21;33.30;39.50
11597;DHT22;5854;48.072;16.286;2023-06-22T11:59:22;33.30;38.70
11597;DHT22;5854;48.072;16.286;2023-06-22T12:02:05;33.20;39.50
11597;DHT22;5854;48.072;16.286;2023-06-22T12:04:45;33.40;39.60
11597;DHT22;5854;48.072;16.286;2023-06-22T12:07:46;33.00;39.50
11597;DHT22;5854;48.072;16.286;2023-06-22T12:10:59;33.20;39.90
11597;DHT22;5854;48.072;16.286;2023-06-22T12:13:58;33.50;39.70
11597;DHT22;5854;48.072;16.286;2023-06-22T12:17:01;33.50;39.50
11597;DHT22;5854;48.072;16.286;2023-06-22T12:19:48;33.60;39.20
11597;DHT22;5854;48.072;16.286;2023-06-22T12:22:48;33.40;38.80
11597;DHT22;5854;48.072;16.286;2023-06-22T12:25:38;33.50;38.70
11597;DHT22;5854;48.072;16.286;2023-06-22T12:33:45;33.40;38.80
11597;DHT22;5854;48.072;16.286;2023-06-22T12:36:41;33.50;39.20
11597;DHT22;5854;48.072;16.286;2023-06-22T12:39:43;33.40;39.30
11597;DHT22;5854;48.072;16.286;2023-06-22T12:42:39;33.30;40.70
11597;DHT22;5854;48.072;16.286;2023-06-22T12:45:30;33.00;40.10
11597;DHT22;5854;48.072;16.286;2023-06-22T12:48:26;32.80;39.30
11597;DHT22;5854;48.072;16.286;2023-06-22T12:56:31;32.90;40.10
11597;DHT22;5854;48.072;16.286;2023-06-22T12:59:23;32.80;41.40
11597;DHT22;5854;48.072;16.286;2023-06-22T13:02:29;32.80;39.90
11597;DHT22;5854;48.072;16.286;2023-06-22T13:05:49;32.80;40.30
11597;DHT22;5854;48.072;16.286;2023-06-22T13:08:48;32.80;40.20
11597;DHT22;5854;48.072;16.286;2023-06-22T13:12:00;32.80;42.30
11597;DHT22;5854;48.072;16.286;2023-06-22T13:15:09;32.70;40.20
11597;DHT22;5854;48.072;16.286;2023-06-22T13:18:19;32.50;41.50
11597;DHT22;5854;48.072;16.286;2023-06-22T13:21:17;32.60;41.30
11597;DHT22;5854;48.072;16.286;2023-06-22T13:24:16;32.80;41.30
11597;DHT22;5854;48.072;16.286;2023-06-22T13:27:07;32.90;41.40
11597;DHT22;5854;48.072;16.286;2023-06-22T13:29:49;32.70;41.40
11597;DHT22;5854;48.072;16.286;2023-06-22T13:32:36;32.60;43.10
11597;DHT22;5854;48.072;16.286;2023-06-22T13:35:17;32.60;42.40
11597;DHT22;5854;48.072;16.286;2023-06-22T13:38:14;32.80;41.70
11597;DHT22;5854;48.072;16.286;2023-06-22T13:41:06;32.80;41.50
11597;DHT22;5854;48.072;16.286;2023-06-22T13:43:53;32.80;41.70
11597;DHT22;5854;48.072;16.286;2023-06-22T13:46:39;33.10;42.60
11597;DHT22;5854;48.072;16.286;2023-06-22T13:49:42;33.20;41.60
11597;DHT22;5854;48.072;16.286;2023-06-22T13:52:27;33.40;41.50
11597;DHT22;5854;48.072;16.286;2023-06-22T13:55:05;33.40;41.00
11597;DHT22;5854;48.072;16.286;2023-06-22T13:57:59;33.30;41.10
11597;DHT22;5854;48.072;16.286;2023-06-22T14:00:34;33.10;42.20
11597;DHT22;5854;48.072;16.286;2023-06-22T14:03:11;33.30;41.90
11597;DHT22;5854;48.072;16.286;2023-06-22T14:05:44;33.50;41.20
11597;DHT22;5854;48.072;16.286;2023-06-22T14:08:23;33.40;42.10
11597;DHT22;5854;48.072;16.286;2023-06-22T14:10:51;33.20;41.90
11597;DHT22;5854;48.072;16.286;2023-06-22T14:13:25;33.40;41.60
11597;DHT22;5854;48.072;16.286;2023-06-22T14:16:00;33.30;41.60
11597;DHT22;5854;48.072;16.286;2023-06-22T14:18:34;33.40;41.70
11597;DHT22;5854;48.072;16.286;2023-06-22T14:21:02;33.60;41.60
11597;DHT22;5854;48.072;16.286;2023-06-22T14:23:34;33.60;41.80
11597;DHT22;5854;48.072;16.286;2023-06-22T14:26:05;33.60;41.70
11597;DHT22;5854;48.072;16.286;2023-06-22T14:28:36;33.70;41.40
11597;DHT22;5854;48.072;16.286;2023-06-22T14:31:23;33.70;41.30
11597;DHT22;5854;48.072;16.286;2023-06-22T14:34:05;33.30;42.10
11597;DHT22;5854;48.072;16.286;2023-06-22T14:36:40;33.30;42.80
11597;DHT22;5854;48.072;16.286;2023-06-22T14:39:11;33.20;43.00
11597;DHT22;5854;48.072;16.286;2023-06-22T14:41:43;33.10;42.80
11597;DHT22;5854;48.072;16.286;2023-06-22T14:44:10;33.10;43.00
11597;DHT22;5854;48.072;16.286;2023-06-22T14:46:58;33.10;43.40
11597;DHT22;5854;48.072;16.286;2023-06-22T14:49:51;33.20;42.40
11597;DHT22;5854;48.072;16.286;2023-06-22T14:52:35;33.10;43.10
11597;DHT22;5854;48.072;16.286;2023-06-22T14:55:34;33.30;42.80
11597;DHT22;5854;48.072;16.286;2023-06-22T14:58:27;33.40;43.10
11597;DHT22;5854;48.072;16.286;2023-06-22T15:01:12;33.20;42.30
11597;DHT22;5854;48.072;16.286;2023-06-22T15:04:01;33.10;42.80
11597;DHT22;5854;48.072;16.286;2023-06-22T15:07:01;33.00;43.30
11597;DHT22;5854;48.072;16.286;2023-06-22T15:09:53;33.10;42.90
11597;DHT22;5854;48.072;16.286;2023-06-22T15:12:46;33.40;42.80
11597;DHT22;5854;48.072;16.286;2023-06-22T15:15:54;33.30;42.30
11597;DHT22;5854;48.072;16.286;2023-06-22T15:18:47;32.90;43.00
11597;DHT22;5854;48.072;16.286;2023-06-22T15:21:57;33.20;43.10
11597;DHT22;5854;48.072;16.286;2023-06-22T15:24:52;33.50;42.90
11597;DHT22;5854;48.072;16.286;2023-06-22T15:27:31;33.90;41.60
11597;DHT22;5854;48.072;16.286;2023-06-22T15:30:31;34.00;42.50
11597;DHT22;5854;48.072;16.286;2023-06-22T15:33:25;34.30;42.00
11597;DHT22;5854;48.072;16.286;2023-06-22T15:36:06;34.40;41.30
11597;DHT22;5854;48.072;16.286;2023-06-22T15:38:54;34.30;41.40
11597;DHT22;5854;48.072;16.286;2023-06-22T15:41:30;34.30;41.70
11597;DHT22;5854;48.072;16.286;2023-06-22T15:44:14;33.90;41.60
11597;DHT22;5854;48.072;16.286;2023-06-22T15:46:49;33.80;41.90
11597;DHT22;5854;48.072;16.286;2023-06-22T15:49:30;33.80;42.60
11597;DHT22;5854;48.072;16.286;2023-06-22T15:55:10;34.00;42.20
11597;DHT22;5854;48.072;16.286;2023-06-22T15:57:47;33.90;41.80
11597;DHT22;5854;48.072;16.286;2023-06-22T16:00:33;33.80;42.20
11597;DHT22;5854;48.072;16.286;2023-06-22T16:03:31;33.60;42.30
11597;DHT22;5854;48.072;16.286;2023-06-22T16:06:09;33.80;42.10
11597;DHT22;5854;48.072;16.286;2023-06-22T16:08:55;33.70;42.80
11597;DHT22;5854;48.072;16.286;2023-06-22T16:11:50;33.80;42.80
11597;DHT22;5854;48.072;16.286;2023-06-22T16:14:29;33.90;42.60
11597;DHT22;5854;48.072;16.286;2023-06-22T16:17:14;34.10;43.00
11597;DHT22;5854;48.072;16.286;2023-06-22T16:19:50;34.30;42.70
11597;DHT22;5854;48.072;16.286;2023-06-22T16:22:31;34.40;41.90
11597;DHT22;5854;48.072;16.286;2023-06-22T16:25:10;34.30;42.00
11597;DHT22;5854;48.072;16.286;2023-06-22T16:27:56;34.40;41.60
11597;DHT22;5854;48.072;16.286;2023-06-22T16:30:35;34.50;41.70
11597;DHT22;5854;48.072;16.286;2023-06-22T16:33:16;34.40;42.30
11597;DHT22;5854;48.072;16.286;2023-06-22T16:35:54;34.40;42.00
11597;DHT22;5854;48.072;16.286;2023-06-22T16:38:41;34.10;42.40
11597;DHT22;5854;48.072;16.286;2023-06-22T16:41:23;34.10;43.20
11597;DHT22;5854;48.072;16.286;2023-06-22T16:44:14;34.00;43.40
11597;DHT22;5854;48.072;16.286;2023-06-22T16:47:17;34.00;43.00
11597;DHT22;5854;48.072;16.286;2023-06-22T16:49:57;34.10;43.00
11597;DHT22;5854;48.072;16.286;2023-06-22T16:52:55;34.00;43.20
11597;DHT22;5854;48.072;16.286;2023-06-22T16:55:33;34.00;43.30
11597;DHT22;5854;48.072;16.286;2023-06-22T16:58:01;34.10;43.00
11597;DHT22;5854;48.072;16.286;2023-06-22T17:00:38;34.30;42.70
11597;DHT22;5854;48.072;16.286;2023-06-22T17:03:20;34.20;43.00
11597;DHT22;5854;48.072;16.286;2023-06-22T17:06:30;34.00;43.50
11597;DHT22;5854;48.072;16.286;2023-06-22T17:09:37;33.80;43.10
11597;DHT22;5854;48.072;16.286;2023-06-22T17:12:40;33.80;43.60
11597;DHT22;5854;48.072;16.286;2023-06-22T17:15:33;34.00;44.10
11597;DHT22;5854;48.072;16.286;2023-06-22T17:22:23;33.70;43.60
11597;DHT22;5854;48.072;16.286;2023-06-22T17:25:15;33.30;44.90
11597;DHT22;5854;48.072;16.286;2023-06-22T17:28:16;33.20;45.20
11597;DHT22;5854;48.072;16.286;2023-06-22T17:31:11;33.30;45.20
11597;DHT22;5854;48.072;16.286;2023-06-22T17:33:58;33.30;45.30
11597;DHT22;5854;48.072;16.286;2023-06-22T17:36:56;33.40;45.00
11597;DHT22;5854;48.072;16.286;2023-06-22T17:39:37;33.40;44.90
11597;DHT22;5854;48.072;16.286;2023-06-22T17:42:28;33.40;44.90
11597;DHT22;5854;48.072;16.286;2023-06-22T17:45:19;33.30;45.40
11597;DHT22;5854;48.072;16.286;2023-06-22T17:47:55;33.10;45.70
11597;DHT22;5854;48.072;16.286;2023-06-22T17:50:52;33.10;45.70
11597;DHT22;5854;48.072;16.286;2023-06-22T17:53:55;33.10;46.00
11597;DHT22;5854;48.072;16.286;2023-06-22T17:57:15;33.00;45.90
11597;DHT22;5854;48.072;16.286;2023-06-22T18:00:18;33.00;46.20
11597;DHT22;5854;48.072;16.286;2023-06-22T18:03:05;33.00;46.10
11597;DHT22;5854;48.072;16.286;2023-06-22T18:06:05;33.00;46.60
11597;DHT22;5854;48.072;16.286;2023-06-22T18:12:25;33.10;46.10
11597;DHT22;5854;48.072;16.286;2023-06-22T18:15:23;33.00;46.00
11597;DHT22;5854;48.072;16.286;2023-06-22T18:18:19;33.00;45.90
11597;DHT22;5854;48.072;16.286;2023-06-22T18:21:21;32.80;46.00
11597;DHT22;5854;48.072;16.286;2023-06-22T18:24:09;32.60;46.30
11597;DHT22;5854;48.072;16.286;2023-06-22T18:27:48;32.60;46.90
11597;DHT22;5854;48.072;16.286;2023-06-22T18:30:49;32.60;46.60
11597;DHT22;5854;48.072;16.286;2023-06-22T18:33:47;32.80;46.40
11597;DHT22;5854;48.072;16.286;2023-06-22T18:36:50;32.60;47.00
11597;DHT22;5854;48.072;16.286;2023-06-22T18:39:46;32.70;46.30